Aérodrome :
LOGIN :

S'inscrire | Disclaimer

   EN    FR    IT 

 










Légende :    VFR   VFR Marginal   IFR   IFR Intensif   IFR Très Intensif
Visi : 
Plafond : 
>= 8 km
>= 3000ft
5 à 8 km
1000 à 3000 ft
1500m à 5 km
500 à 1000 ft
800 à 1500m
200 à 500 ft
< 800m
< 200 ft
Symboles :   Orages  Brouillard  Fortes neiges  Fortes précipitations  Vent > 20 kt
SIGMETs :   Divers  Orages  Givrage  Turbulence  Onde Orograph.  Cendres Volcan.






- Altitude de l'aérodrome : 1161 ft
- Code IATA : RJL


LELO - Logroño-Agoncillo

DERNIER METAR :
  • 280100Z AUTO 06007KT CAVOK 19/11 Q1026

METARs EXPIRÉS :
  • 280030Z AUTO 08007KT CAVOK 19/11 Q1026
  • 280000Z AUTO 08007KT CAVOK 19/11 Q1026
  • 272330Z AUTO 09005KT CAVOK 19/12 Q1025
  • 272300Z AUTO 08006KT CAVOK 20/12 Q1025
  • 272230Z AUTO 08004KT 050V110 CAVOK 20/14 Q1025
  • 272200Z AUTO 10004KT CAVOK 20/14 Q1025

TAF TAF LELO
Valide du 27 à 18h jusqu'au 28 à 03h UTC


271700Z 2718/2803 12010KT CAVOK
PROB40
TEMPO 2718/2719 FEW045TCU



MET'MAP, la Météo Aéronautique d'un coup d'oeil ! - Copyright ORBIFLY Décembre 2007 - Disclaimer

ORBIFLY MET'MAP TEAM :

Programmation & Développement : Alexandra Zaïnal
Sur une idée originale de : Baudouin d'Aumeries
Assistance à la programmation : Marc-Olivier Méhu
Soutien technique & logistique : Manuel Goepfert

Contact : metmap@orbifly.com




SOURCES & CREDITS :

   NOAA